RJEO(METAR)
12/11 14:00
RJEO 110500Z 29014KT 9999 SN SCT025 BKN035 M01/M06 Q1028 RMK A3036=
戻る
トップページへ戻る
IMOC Co,.Ltd.